Time;durP1;ratioP1;P1;durP2;ratioP2;P2;SDS_P1;SDS_P2;PMS_P1;PMS_P2;Temp;Humidity;BMP_temperature;BMP_pressure;BME280_temperature;BME280_humidity;BME280_pressure;Samples;Min_cycle;Max_cycle;Signal;HPM_P1;HPM_P2
2022/07/13 00:02:10;;;;;;;10.63;6.43;;;;;;;22.49;62.00;102006.72;5112905;27;20039;-62
2022/07/13 00:04:35;;;;;;;8.52;6.90;;;;;;;22.56;59.14;102001.56;5129900;27;20397;-62
2022/07/13 00:07:01;;;;;;;11.63;6.93;;;;;;;22.55;58.98;102006.13;5131371;27;20043;-64
2022/07/13 00:09:26;;;;;;;8.88;6.40;;;;;;;22.59;58.49;102012.09;5113187;27;20039;-63
2022/07/13 00:11:52;;;;;;;7.45;6.03;;;;;;;22.63;59.09;101986.41;5096130;27;20031;-63
2022/07/13 00:14:17;;;;;;;9.25;6.15;;;;;;;22.56;57.80;101963.59;5077800;27;20039;-63
2022/07/13 00:16:42;;;;;;;8.60;6.22;;;;;;;22.59;58.24;101976.84;5080982;27;20041;-63
2022/07/13 00:19:08;;;;;;;8.77;6.78;;;;;;;22.58;57.39;101967.88;5131703;27;20035;-62
2022/07/13 00:21:35;;;;;;;6.60;5.88;;;;;;;22.56;57.98;101972.59;5129287;27;20027;-63
2022/07/13 00:24:01;;;;;;;8.18;5.90;;;;;;;22.49;57.71;101960.63;5114234;27;20027;-62
2022/07/13 00:26:26;;;;;;;10.70;6.13;;;;;;;22.58;56.96;101959.72;5113592;27;20029;-63
2022/07/13 00:28:53;;;;;;;6.88;5.40;;;;;;;22.48;57.81;101956.22;5131998;27;20038;-63
2022/07/13 00:31:18;;;;;;;7.32;5.45;;;;;;;22.55;57.54;101961.88;5129911;27;20027;-63
2022/07/13 00:33:43;;;;;;;5.65;5.13;;;;;;;22.52;58.12;101963.03;5113166;27;20397;-63
2022/07/13 00:36:09;;;;;;;6.00;5.32;;;;;;;22.55;55.78;101961.88;5130371;27;20074;-62
2022/07/13 00:38:37;;;;;;;9.88;5.50;;;;;;;22.49;55.28;101938.91;5112613;27;20061;-63
2022/07/13 00:41:06;;;;;;;8.20;6.05;;;;;;;22.56;55.11;101945.47;5112802;27;20027;-62
2022/07/13 00:43:32;;;;;;;6.85;5.68;;;;;;;22.56;54.83;101945.47;5131901;27;20355;-63
2022/07/13 00:45:58;;;;;;;8.85;5.38;;;;;;;22.52;55.98;101929.66;5113515;27;20079;-63
2022/07/13 00:48:23;;;;;;;7.15;5.53;;;;;;;22.45;56.67;101926.69;5130771;27;20035;-62
2022/07/13 00:50:51;;;;;;;6.15;4.53;;;;;;;22.47;57.19;101923.81;5111970;27;20045;-63
2022/07/13 00:53:18;;;;;;;6.22;4.90;;;;;;;22.55;54.36;101932.06;5131138;27;20626;-63
2022/07/13 00:55:45;;;;;;;8.45;4.72;;;;;;;22.50;56.70;101931.63;5130652;27;20027;-63
2022/07/13 00:58:11;;;;;;;7.63;4.70;;;;;;;22.46;58.11;101920.25;5131508;27;20507;-63
2022/07/13 01:00:37;;;;;;;5.00;4.50;;;;;;;22.51;54.86;101922.53;5112978;28;20031;-62
2022/07/13 01:03:02;;;;;;;7.32;4.93;;;;;;;22.44;55.66;101924.94;5093350;28;20382;-63
2022/07/13 01:05:28;;;;;;;9.43;4.68;;;;;;;22.50;55.58;101918.09;5112389;28;20042;-62
2022/07/13 01:07:54;;;;;;;7.68;5.03;;;;;;;22.39;56.71;101913.72;5110421;28;20027;-63
2022/07/13 01:10:20;;;;;;;7.35;4.60;;;;;;;22.40;55.12;101913.56;5130642;28;20023;-63
2022/07/13 01:12:46;;;;;;;8.02;5.32;;;;;;;22.45;55.85;101916.69;5130678;28;20042;-62
2022/07/13 01:15:13;;;;;;;7.57;5.45;;;;;;;22.47;54.57;101921.94;5111336;28;20070;-62
2022/07/13 01:17:39;;;;;;;6.93;4.93;;;;;;;22.42;55.96;101918.84;5111717;28;20023;-63
2022/07/13 01:20:06;;;;;;;7.72;4.60;;;;;;;22.44;55.25;101923.13;5129980;28;20027;-63
2022/07/13 01:23:04;;;;;;;7.20;4.20;;;;;;;22.48;55.68;101909.25;5129542;28;20019;-62
2022/07/13 01:25:30;;;;;;;6.63;4.40;;;;;;;22.44;54.53;101914.97;5130570;28;20027;-63
2022/07/13 01:27:55;;;;;;;7.10;4.68;;;;;;;22.35;54.51;101898.72;5113375;28;20481;-62
2022/07/13 01:30:21;;;;;;;6.97;4.95;;;;;;;22.44;53.54;101905.97;5129006;28;20363;-62
2022/07/13 01:32:50;;;;;;;11.02;4.35;;;;;;;22.40;53.68;101907.28;5109041;28;20081;-62
2022/07/13 01:35:16;;;;;;;7.32;4.78;;;;;;;22.37;53.36;101903.00;5129665;28;20447;-62
2022/07/13 01:37:43;;;;;;;7.72;4.57;;;;;;;22.43;53.42;101917.81;5130829;28;20023;-62
2022/07/13 01:40:09;;;;;;;5.82;4.30;;;;;;;22.44;54.53;101908.69;5129188;28;20102;-62
2022/07/13 01:42:43;;;;;;;7.55;4.85;;;;;;;22.39;54.40;101901.00;5112739;28;20026;-63
2022/07/13 01:45:12;;;;;;;10.70;4.47;;;;;;;22.35;55.29;101902.28;5129995;28;20050;-62
2022/07/13 01:47:38;;;;;;;;;;;;;;;22.50;54.96;101905.41;5129452;28;20470;-63
2022/07/13 01:50:04;;;;;;;5.50;4.15;;;;;;;22.36;54.94;101909.44;5130960;28;20036;-62
2022/07/13 01:52:30;;;;;;;4.80;3.88;;;;;;;22.38;53.23;101910.16;5112072;28;20054;-63
2022/07/13 01:54:56;;;;;;;17.55;5.05;;;;;;;22.35;53.03;101905.00;5129907;28;20032;-63
2022/07/13 01:57:24;;;;;;;5.65;4.20;;;;;;;22.35;54.09;101910.41;5110616;28;20031;-63
2022/07/13 01:59:51;;;;;;;10.10;4.37;;;;;;;22.35;55.72;101907.72;5132711;27;20031;-63
2022/07/13 02:02:16;;;;;;;11.88;4.47;;;;;;;22.29;54.29;101902.88;5115480;27;20054;-63
2022/07/13 02:04:42;;;;;;;9.93;4.35;;;;;;;22.21;55.50;101900.09;5115241;27;20442;-62
2022/07/13 02:07:07;;;;;;;10.65;4.10;;;;;;;22.20;55.48;101901.06;5116063;27;20031;-62
2022/07/13 02:09:33;;;;;;;7.43;4.13;;;;;;;22.23;53.22;101887.22;5088117;27;20482;-63
2022/07/13 02:11:59;;;;;;;8.10;4.47;;;;;;;22.26;55.11;101891.50;5097127;27;20469;-63
2022/07/13 02:14:25;;;;;;;10.75;4.32;;;;;;;22.23;53.14;101879.94;5115422;27;20031;-63
2022/07/13 02:16:51;;;;;;;10.95;4.65;;;;;;;22.21;53.88;101886.53;5115362;27;20035;-62
2022/07/13 02:19:19;;;;;;;5.85;3.90;;;;;;;22.27;52.96;101880.50;5114473;27;20038;-63
2022/07/13 02:21:46;;;;;;;7.18;4.25;;;;;;;22.22;53.40;101878.22;5115028;27;20034;-63
2022/07/13 02:24:11;;;;;;;9.15;4.50;;;;;;;22.21;53.30;101871.13;5116144;27;20019;-62
2022/07/13 02:26:37;;;;;;;7.53;4.22;;;;;;;22.23;53.31;101873.66;5115349;27;20087;-62
2022/07/13 02:29:03;;;;;;;8.00;3.78;;;;;;;22.23;53.51;101871.81;5096549;27;20475;-62
2022/07/13 02:31:28;;;;;;;7.38;4.60;;;;;;;22.19;54.18;101878.53;5113423;27;20019;-62
2022/07/13 02:33:54;;;;;;;8.75;4.47;;;;;;;22.21;54.17;101875.69;5081982;27;20038;-63
2022/07/13 02:36:19;;;;;;;5.57;4.38;;;;;;;22.19;53.94;101864.13;5115173;27;20035;-63
2022/07/13 02:38:45;;;;;;;5.90;4.30;;;;;;;22.16;54.00;101858.97;5094742;27;20035;-63
2022/07/13 02:41:11;;;;;;;7.93;4.50;;;;;;;22.16;54.12;101862.53;5114639;27;20031;-62
2022/07/13 02:43:37;;;;;;;13.65;4.78;;;;;;;22.12;54.41;101866.56;5133455;27;20665;-62
2022/07/13 02:46:02;;;;;;;11.50;4.80;;;;;;;22.07;54.45;101858.00;5098459;27;20091;-63
2022/07/13 02:48:28;;;;;;;9.40;3.92;;;;;;;22.10;54.80;101859.56;5083456;27;20478;-63
2022/07/13 02:50:54;;;;;;;6.60;3.83;;;;;;;22.11;54.69;101836.88;5115638;27;20055;-62
2022/07/13 02:53:19;;;;;;;8.35;4.30;;;;;;;22.10;54.32;101838.75;5097175;27;20079;-63
2022/07/13 02:55:45;;;;;;;7.82;4.38;;;;;;;22.07;54.61;101849.88;5085072;27;20040;-62
2022/07/13 02:58:10;;;;;;;7.47;4.15;;;;;;;22.11;54.56;101859.41;5133202;27;20037;-63
2022/07/13 03:00:38;;;;;;;9.70;4.05;;;;;;;22.04;57.56;101855.59;5115365;27;20031;-62
2022/07/13 03:03:05;;;;;;;6.03;3.72;;;;;;;22.06;55.14;101850.00;5114660;27;20055;-62
2022/07/13 03:05:30;;;;;;;5.55;4.10;;;;;;;21.97;57.70;101851.75;5133642;27;20015;-62
2022/07/13 03:07:55;;;;;;;7.07;4.32;;;;;;;22.03;55.96;101853.91;5113996;27;20027;-62
2022/07/13 03:10:24;;;;;;;9.45;4.25;;;;;;;22.05;55.36;101864.56;5112688;27;20043;-63
2022/07/13 03:12:50;;;;;;;6.57;4.38;;;;;;;21.98;56.66;101859.75;5083637;27;20035;-62
2022/07/13 03:15:16;;;;;;;8.48;4.10;;;;;;;22.01;55.59;101855.88;5133543;27;20060;-62
2022/07/13 03:17:42;;;;;;;8.82;4.57;;;;;;;22.04;55.07;101862.88;5096461;27;20031;-63
2022/07/13 03:20:08;;;;;;;5.45;4.18;;;;;;;22.00;55.20;101851.44;5114141;27;20386;-62
2022/07/13 03:22:34;;;;;;;4.15;3.70;;;;;;;22.01;55.10;101861.31;5130035;27;20019;-62
2022/07/13 03:25:02;;;;;;;8.70;3.83;;;;;;;22.01;54.77;101850.47;5132661;27;20034;-62
2022/07/13 03:27:28;;;;;;;4.10;3.67;;;;;;;22.02;55.26;101845.91;5113508;27;20035;-63
2022/07/13 03:29:53;;;;;;;7.47;4.05;;;;;;;22.02;55.35;101846.75;5096583;27;20092;-63
2022/07/13 03:32:19;;;;;;;6.03;4.25;;;;;;;21.98;54.94;101843.47;5113252;27;20056;-62
2022/07/13 03:34:44;;;;;;;6.10;4.10;;;;;;;22.01;55.43;101847.75;5097006;27;20023;-63
2022/07/13 03:37:12;;;;;;;6.32;4.03;;;;;;;22.03;55.03;101842.19;5112991;27;20031;-63
2022/07/13 03:39:39;;;;;;;4.45;3.90;;;;;;;21.98;55.70;101845.34;5113317;27;20454;-63
2022/07/13 03:42:05;;;;;;;5.95;3.97;;;;;;;22.00;55.32;101848.75;5130629;27;20088;-62
2022/07/13 03:44:33;;;;;;;5.00;4.20;;;;;;;22.00;54.95;101838.78;5131108;27;20083;-62
2022/07/13 03:46:58;;;;;;;6.60;4.35;;;;;;;21.98;55.29;101846.19;5114405;27;20034;-62
2022/07/13 03:49:24;;;;;;;5.60;3.97;;;;;;;21.96;55.21;101834.63;5097353;27;20027;-62
2022/07/13 03:51:50;;;;;;;7.15;4.18;;;;;;;21.98;54.84;101837.22;5131812;27;20092;-62
2022/07/13 03:54:15;;;;;;;5.40;4.22;;;;;;;21.96;55.08;101842.78;5132108;27;20099;-62
2022/07/13 03:56:41;;;;;;;8.43;4.30;;;;;;;21.95;55.20;101830.22;5096039;27;20049;-62
2022/07/13 03:59:07;;;;;;;5.10;4.13;;;;;;;21.94;55.26;101833.97;5112899;27;20077;-63
2022/07/13 04:01:32;;;;;;;6.35;4.15;;;;;;;21.94;56.12;101838.50;5095148;27;20470;-63
2022/07/13 04:04:01;;;;;;;5.88;4.05;;;;;;;21.92;54.99;101829.69;5132175;27;20055;-63
2022/07/13 04:06:26;;;;;;;5.40;4.47;;;;;;;21.95;55.42;101840.22;5129586;27;20039;-63
2022/07/13 04:08:52;;;;;;;9.02;4.43;;;;;;;21.93;55.62;101840.34;5113957;27;20389;-63
2022/07/13 04:11:22;;;;;;;4.70;4.15;;;;;;;21.94;55.59;101843.91;5131944;27;20072;-63
2022/07/13 04:13:49;;;;;;;5.45;4.32;;;;;;;21.95;56.49;101843.78;5129516;27;20142;-62
2022/07/13 04:16:16;;;;;;;6.45;4.22;;;;;;;21.95;55.92;101837.50;5131279;27;20055;-63
2022/07/13 04:18:47;;;;;;;7.78;4.18;;;;;;;21.94;55.92;101827.66;5113726;27;20026;-62
2022/07/13 04:21:14;;;;;;;6.45;4.25;;;;;;;21.96;56.38;101826.50;5131589;27;20766;-63
2022/07/13 04:23:39;;;;;;;6.00;4.50;;;;;;;21.90;56.38;101820.84;5112720;27;20026;-63
2022/07/13 04:26:05;;;;;;;5.80;4.45;;;;;;;21.96;55.88;101831.09;5131638;27;20474;-62
2022/07/13 04:28:33;;;;;;;7.18;4.32;;;;;;;21.95;55.92;101818.56;5131205;27;20461;-62
2022/07/13 04:30:59;;;;;;;9.30;4.38;;;;;;;21.91;55.97;101815.28;5114068;27;20396;-63
2022/07/13 04:33:25;;;;;;;6.32;4.05;;;;;;;21.98;55.95;101816.38;5112035;27;20493;-63
2022/07/13 04:35:53;;;;;;;6.95;4.30;;;;;;;21.97;56.32;101812.00;5131715;27;20118;-62
2022/07/13 04:38:19;;;;;;;7.60;4.40;;;;;;;22.00;55.80;101808.09;5111165;27;20023;-63
2022/07/13 04:40:46;;;;;;;10.85;4.20;;;;;;;21.99;55.70;101814.53;5129057;27;20380;-62
2022/07/13 04:43:11;;;;;;;5.05;4.18;;;;;;;21.90;55.71;101802.72;5112093;27;20031;-63
2022/07/13 04:45:39;;;;;;;9.52;4.47;;;;;;;22.00;56.17;101816.22;5131206;27;20064;-63
2022/07/13 04:48:05;;;;;;;4.55;4.15;;;;;;;22.00;56.08;101819.81;5131497;27;20044;-63
2022/07/13 04:50:32;;;;;;;5.32;4.05;;;;;;;22.01;55.48;101817.94;5111688;27;20027;-63
2022/07/13 04:52:58;;;;;;;9.68;4.57;;;;;;;21.98;56.93;101812.84;5130615;27;20031;-63
2022/07/13 04:55:24;;;;;;;10.88;4.82;;;;;;;21.99;56.22;101809.13;5089447;27;20451;-62
2022/07/13 04:57:49;;;;;;;7.97;4.63;;;;;;;21.90;56.79;101797.31;5112940;27;20035;-62
2022/07/13 05:00:16;;;;;;;9.85;5.07;;;;;;;21.99;55.90;101809.13;5130777;27;20103;-63
2022/07/13 05:02:41;;;;;;;5.45;3.97;;;;;;;21.98;56.56;101812.84;5088235;28;20389;-62
2022/07/13 05:05:08;;;;;;;5.47;4.05;;;;;;;22.02;56.18;101816.09;5131173;28;20033;-63
2022/07/13 05:07:33;;;;;;;12.18;4.30;;;;;;;22.02;56.21;101807.97;5112370;28;20035;-63
2022/07/13 05:09:59;;;;;;;5.28;3.80;;;;;;;22.02;56.27;101805.25;5111127;28;20027;-62
2022/07/13 05:12:27;;;;;;;6.97;4.03;;;;;;;22.06;56.60;101810.25;5095819;28;20031;-63
2022/07/13 05:14:53;;;;;;;11.32;3.97;;;;;;;22.06;56.50;101815.66;5113427;28;20027;-63
2022/07/13 05:17:18;;;;;;;8.90;4.25;;;;;;;22.14;54.99;101804.91;5131123;28;20045;-62
2022/07/13 05:19:44;;;;;;;8.95;4.20;;;;;;;22.12;56.20;101814.19;5095382;28;20039;-63
2022/07/13 05:22:09;;;;;;;10.27;4.35;;;;;;;22.12;55.37;101801.53;5112388;28;20034;-63
2022/07/13 05:24:36;;;;;;;7.22;4.38;;;;;;;22.19;54.53;101797.22;5130059;28;20489;-62
2022/07/13 05:27:01;;;;;;;6.97;3.88;;;;;;;22.19;54.12;101799.09;5130649;28;20072;-62
2022/07/13 05:29:27;;;;;;;5.35;3.80;;;;;;;22.20;54.81;101803.50;5095800;28;20047;-63
2022/07/13 05:31:56;;;;;;;6.22;3.72;;;;;;;22.21;53.60;101797.94;5110728;28;20031;-63
2022/07/13 05:34:21;;;;;;;7.18;3.80;;;;;;;22.22;54.56;101804.22;5112844;27;20026;-62
2022/07/13 05:36:46;;;;;;;8.25;3.60;;;;;;;22.22;54.48;101820.47;5134069;27;20035;-63
2022/07/13 05:39:12;;;;;;;6.18;4.05;;;;;;;22.20;54.48;101817.03;5116593;27;20106;-63
2022/07/13 05:41:38;;;;;;;6.93;3.63;;;;;;;22.19;54.11;101809.94;5134856;27;20565;-62
2022/07/13 05:44:03;;;;;;;6.28;3.85;;;;;;;22.18;54.22;101805.53;5099422;27;20038;-62
2022/07/13 05:46:29;;;;;;;10.98;4.07;;;;;;;22.29;53.89;101810.72;5132108;27;20038;-62
2022/07/13 05:48:54;;;;;;;10.15;3.28;;;;;;;22.31;54.26;101822.28;5116416;27;20027;-62
2022/07/13 05:51:19;;;;;;;5.97;3.78;;;;;;;22.29;54.57;101813.44;5132696;27;20046;-63
2022/07/13 05:53:47;;;;;;;7.70;3.50;;;;;;;22.34;54.31;101830.13;5134688;27;20126;-63
2022/07/13 05:56:14;;;;;;;7.05;3.50;;;;;;;22.38;53.83;101828.84;5134777;27;20031;-63
2022/07/13 05:58:42;;;;;;;14.55;3.88;;;;;;;22.37;53.98;101827.09;5116563;27;20033;-63
2022/07/13 06:01:07;;;;;;;7.75;3.85;;;;;;;22.47;53.87;101827.03;5114547;27;20059;-63
2022/07/13 06:03:33;;;;;;;5.00;3.75;;;;;;;22.44;53.87;101828.22;5088971;27;20491;-62
2022/07/13 06:05:59;;;;;;;4.32;3.83;;;;;;;22.48;53.76;101830.63;5134053;27;20027;-62
2022/07/13 06:08:27;;;;;;;4.95;3.42;;;;;;;22.49;53.94;101833.19;5115208;27;20039;-62
2022/07/13 06:10:57;;;;;;;3.65;3.35;;;;;;;22.49;53.59;101826.91;5134875;27;20038;-62
2022/07/13 06:13:25;;;;;;;8.38;3.55;;;;;;;22.51;53.86;101828.47;5132947;27;20371;-63
2022/07/13 06:15:51;;;;;;;4.73;3.47;;;;;;;22.54;53.60;101822.75;5132727;27;20514;-63
2022/07/13 06:18:17;;;;;;;4.50;3.35;;;;;;;22.61;53.92;101837.38;5097173;27;20053;-63
2022/07/13 06:20:42;;;;;;;7.07;3.75;;;;;;;22.64;53.13;101837.09;5085710;27;20023;-62
2022/07/13 06:23:10;;;;;;;6.18;3.55;;;;;;;22.68;54.54;101834.94;5133313;27;20091;-63
2022/07/13 06:25:37;;;;;;;;;;;;;;;22.81;53.64;101827.28;5116040;27;20397;-63
2022/07/13 06:28:04;;;;;;;7.72;3.65;;;;;;;22.80;54.45;101822.88;5134179;27;19911;-62
2022/07/13 06:30:30;;;;;;;6.28;3.08;;;;;;;22.80;53.29;101822.03;5114184;27;20039;-63
2022/07/13 06:32:55;;;;;;;10.48;3.67;;;;;;;22.95;54.51;101822.38;5133809;27;20119;-62
2022/07/13 06:35:21;;;;;;;5.55;3.47;;;;;;;22.98;53.40;101831.06;5081725;27;20654;-63
2022/07/13 06:37:46;;;;;;;7.72;4.05;;;;;;;23.04;53.52;101838.59;5115209;27;20039;-63
2022/07/13 06:40:12;;;;;;;8.77;3.42;;;;;;;23.07;53.30;101840.13;5098876;27;20038;-62
2022/07/13 06:42:37;;;;;;;12.18;3.80;;;;;;;23.06;53.06;101828.44;5112575;27;20031;-62
2022/07/13 06:45:04;;;;;;;7.25;3.85;;;;;;;23.09;53.71;101825.41;5132911;27;20015;-63
2022/07/13 06:47:30;;;;;;;8.00;3.65;;;;;;;23.07;53.54;101826.56;5133569;27;20024;-63
2022/07/13 06:49:56;;;;;;;12.77;3.78;;;;;;;23.16;53.74;101835.66;5115493;27;20019;-63
2022/07/13 06:52:22;;;;;;;9.88;3.90;;;;;;;23.26;52.92;101829.09;5114736;27;20506;-63
2022/07/13 06:54:50;;;;;;;6.55;3.85;;;;;;;23.39;52.89;101826.03;5115126;27;20083;-63
2022/07/13 06:57:15;;;;;;;7.68;3.78;;;;;;;23.56;53.42;101827.84;5113945;27;20070;-63
2022/07/13 06:59:42;;;;;;;9.15;4.13;;;;;;;23.63;53.62;101827.22;5132771;27;20030;-62
2022/07/13 07:02:08;;;;;;;9.57;3.88;;;;;;;23.68;53.01;101830.28;5114384;27;20027;-62
2022/07/13 07:04:34;;;;;;;11.13;4.38;;;;;;;23.61;53.40;101824.66;5133407;27;20389;-63
2022/07/13 07:07:00;;;;;;;11.02;3.88;;;;;;;23.64;52.91;101826.19;5132045;27;20034;-62
2022/07/13 07:09:30;;;;;;;10.63;4.28;;;;;;;23.63;54.58;101835.38;5115168;27;20031;-63
2022/07/13 07:11:56;;;;;;;7.18;4.72;;;;;;;23.55;53.54;101836.16;5128946;27;20428;-63
2022/07/13 07:14:22;;;;;;;12.68;4.32;;;;;;;23.57;54.28;101840.41;5115221;27;20030;-62
2022/07/13 07:16:48;;;;;;;10.80;4.20;;;;;;;23.55;53.80;101837.00;5114383;27;20037;-62
2022/07/13 07:19:16;;;;;;;8.98;3.88;;;;;;;23.57;53.89;101834.13;5097633;27;20396;-62
2022/07/13 07:21:41;;;;;;;16.17;4.30;;;;;;;23.66;54.14;101835.91;5114271;27;20414;-63
2022/07/13 07:24:07;;;;;;;7.75;4.03;;;;;;;23.97;54.37;101830.88;5115281;27;20019;-62
2022/07/13 07:26:32;;;;;;;5.85;4.05;;;;;;;24.20;53.34;101830.31;5114778;27;20035;-63
2022/07/13 07:28:58;;;;;;;6.72;4.30;;;;;;;24.25;53.89;101830.69;5133630;27;20023;-63
2022/07/13 07:31:25;;;;;;;9.68;5.05;;;;;;;24.22;52.97;101837.31;5133347;27;20019;-63
2022/07/13 07:33:50;;;;;;;7.57;4.78;;;;;;;24.22;53.18;101836.47;5132215;27;20023;-62
2022/07/13 07:36:16;;;;;;;7.82;4.82;;;;;;;24.33;53.64;101835.31;5132853;27;20113;-62
2022/07/13 07:38:45;;;;;;;10.23;5.38;;;;;;;24.41;53.04;101827.19;5133312;27;20023;-62
2022/07/13 07:41:11;;;;;;;;;;;;;;;24.59;53.23;101816.22;5115667;27;20073;-63
2022/07/13 07:43:39;;;;;;;11.43;6.65;;;;;;;24.47;53.53;101813.84;5132899;27;19955;-62
2022/07/13 07:46:06;;;;;;;;;;;;;;;24.57;53.51;101819.13;5115055;27;20023;-63
2022/07/13 07:48:31;;;;;;;8.52;4.93;;;;;;;24.51;53.75;101821.66;5132148;27;20001;-62
2022/07/13 07:50:57;;;;;;;10.93;5.43;;;;;;;24.53;55.20;101822.31;5132895;27;20074;-63
2022/07/13 07:53:23;;;;;;;7.88;5.38;;;;;;;24.61;54.99;101819.66;5132452;27;20043;-62
2022/07/13 07:55:48;;;;;;;10.32;5.97;;;;;;;24.69;53.37;101822.41;5114555;27;20553;-62
2022/07/13 07:58:14;;;;;;;12.30;5.38;;;;;;;24.78;54.94;101818.69;5132404;27;20524;-62
2022/07/13 08:00:44;;;;;;;8.85;5.55;;;;;;;24.80;54.45;101815.81;5114527;27;20084;-62
2022/07/13 08:03:10;;;;;;;10.00;4.80;;;;;;;24.87;54.79;101808.66;5114030;27;20397;-62
2022/07/13 08:05:38;;;;;;;11.88;5.07;;;;;;;24.96;55.75;101806.81;5132773;27;20023;-62
2022/07/13 08:08:05;;;;;;;10.25;5.28;;;;;;;25.01;55.76;101809.88;5131953;27;20031;-63
2022/07/13 08:10:31;;;;;;;12.25;5.22;;;;;;;25.19;54.32;101813.34;5132744;27;20394;-62
2022/07/13 08:12:58;;;;;;;8.07;5.35;;;;;;;25.24;53.81;101821.00;5114014;27;20058;-62
2022/07/13 08:15:24;;;;;;;11.15;6.00;;;;;;;25.26;54.45;101819.78;5132784;27;20474;-62
2022/07/13 08:17:52;;;;;;;8.52;5.63;;;;;;;25.21;54.71;101826.75;5131980;27;20019;-62
2022/07/13 08:20:17;;;;;;;13.35;6.40;;;;;;;25.19;54.04;101816.06;5132402;27;20421;-63
2022/07/13 08:22:43;;;;;;;12.52;5.95;;;;;;;25.39;55.84;101822.03;5112931;27;20114;-63
2022/07/13 08:25:08;;;;;;;13.00;5.80;;;;;;;25.47;55.27;101821.16;5114221;27;20379;-62
2022/07/13 08:27:34;;;;;;;15.40;5.93;;;;;;;25.49;54.47;101830.84;5113907;27;20058;-62
2022/07/13 08:29:59;;;;;;;8.18;5.45;;;;;;;25.57;54.11;101830.88;5113948;27;20073;-63
2022/07/13 08:32:26;;;;;;;7.18;5.18;;;;;;;25.56;55.53;101822.84;5132120;27;20031;-63
2022/07/13 08:40:22;;;;;;;8.55;5.80;;;;;;;25.52;53.90;101827.78;5129673;27;20180;-62
2022/07/13 08:42:48;;;;;;;8.68;4.72;;;;;;;25.57;54.46;101835.47;5128028;27;20478;-62
2022/07/13 08:45:14;;;;;;;11.40;4.88;;;;;;;25.67;55.24;101827.09;5128767;27;20098;-62
2022/07/13 08:47:42;;;;;;;9.73;5.18;;;;;;;25.97;55.42;101831.00;5130229;27;20470;-63
2022/07/13 08:50:09;;;;;;;11.85;5.30;;;;;;;26.14;54.06;101829.09;5112862;27;20346;-63
2022/07/13 08:52:36;;;;;;;12.27;5.20;;;;;;;26.11;52.95;101829.44;5130593;27;20068;-63
2022/07/13 08:55:06;;;;;;;13.82;5.38;;;;;;;26.03;52.84;101833.91;5130534;27;20465;-63
2022/07/13 08:57:34;;;;;;;8.45;4.88;;;;;;;26.15;53.20;101828.03;5131372;27;20478;-63
2022/07/13 09:00:04;;;;;;;11.18;4.53;;;;;;;26.27;52.84;101830.22;5130647;27;20053;-63
2022/07/13 09:02:30;;;;;;;7.47;5.10;;;;;;;26.23;52.55;101836.22;5130771;27;20398;-63
2022/07/13 09:04:55;;;;;;;11.18;5.07;;;;;;;26.16;51.96;101836.06;5129798;28;20015;-63
2022/07/13 09:07:21;;;;;;;6.93;4.45;;;;;;;26.08;52.31;101846.16;5110711;28;20453;-63
2022/07/13 09:09:52;;;;;;;8.85;4.10;;;;;;;26.04;52.09;101845.66;5112412;28;20049;-63
2022/07/13 09:12:20;;;;;;;6.63;3.72;;;;;;;26.16;52.42;101848.84;5131346;28;20023;-62
2022/07/13 09:15:19;;;;;;;7.03;4.25;;;;;;;26.19;51.58;101843.06;5095183;28;20520;-63
2022/07/13 09:17:45;;;;;;;8.82;3.80;;;;;;;26.29;51.14;101840.94;5127142;28;20125;-62
2022/07/13 09:20:10;;;;;;;7.97;4.30;;;;;;;26.41;51.23;101844.16;5111529;28;20027;-63
2022/07/13 09:22:57;;;;;;;4.28;3.88;;;;;;;26.50;50.87;101849.44;5112561;28;20033;-63
2022/07/13 09:25:37;;;;;;;5.07;3.38;;;;;;;26.55;51.36;101851.63;5112868;28;20467;-63
2022/07/13 09:28:08;;;;;;;9.18;4.47;;;;;;;26.56;50.26;101855.19;5127482;28;20023;-62
2022/07/13 09:30:40;;;;;;;7.38;4.05;;;;;;;26.56;50.94;101850.63;5112438;28;20021;-63
2022/07/13 09:33:05;;;;;;;4.13;3.63;;;;;;;26.57;50.32;101846.00;5112139;28;20023;-63
2022/07/13 09:35:45;;;;;;;6.35;3.97;;;;;;;26.48;51.53;101859.66;5093046;28;20358;-62
2022/07/13 09:38:29;;;;;;;5.95;3.85;;;;;;;26.37;50.64;101859.19;5112210;28;20031;-63
2022/07/13 09:40:57;;;;;;;7.50;3.50;;;;;;;26.21;51.43;101858.22;5129913;28;20432;-63
2022/07/13 09:46:10;;;;;;;5.00;3.42;;;;;;;26.35;50.66;101839.41;5114759;28;20063;-63
2022/07/13 09:48:39;;;;;;;;;;;;;;;26.59;51.06;101844.81;5112865;28;20045;-63
2022/07/13 09:51:07;;;;;;;4.95;2.97;;;;;;;26.54;50.04;101839.03;5125654;28;20297;-62
2022/07/13 09:53:33;;;;;;;5.50;3.40;;;;;;;26.53;50.13;101845.50;5112753;28;20482;-63
2022/07/13 09:56:01;;;;;;;6.57;2.70;;;;;;;26.48;47.83;101854.19;5129044;28;20159;-63
2022/07/13 09:58:32;;;;;;;3.53;2.70;;;;;;;26.46;47.93;101856.25;5131283;28;20426;-63
2022/07/13 10:00:59;;;;;;;5.82;2.97;;;;;;;26.48;46.85;101847.88;5111746;28;20027;-62
2022/07/13 10:03:29;;;;;;;10.57;3.17;;;;;;;26.53;46.86;101861.88;5130019;28;20019;-62
2022/07/13 10:05:56;;;;;;;7.75;2.70;;;;;;;26.63;47.88;101861.66;5131247;28;20068;-62
2022/07/13 10:08:22;;;;;;;4.28;2.60;;;;;;;26.61;45.69;101861.00;5129036;27;20041;-63
2022/07/13 10:10:48;;;;;;;4.45;2.60;;;;;;;26.58;46.62;101856.72;5128504;28;20109;-62
2022/07/13 10:13:14;;;;;;;6.07;3.13;;;;;;;26.65;47.39;101863.19;5128719;28;20513;-62
2022/07/13 10:15:40;;;;;;;6.22;2.67;;;;;;;26.72;48.31;101861.44;5129609;28;20027;-62
2022/07/13 10:18:10;;;;;;;5.55;2.88;;;;;;;26.69;45.45;101866.41;5112246;28;20027;-63
2022/07/13 10:20:41;;;;;;;6.40;2.60;;;;;;;26.73;46.87;101857.66;5112294;27;20106;-62
2022/07/13 10:23:10;;;;;;;3.58;2.45;;;;;;;26.72;47.84;101847.78;5134169;27;20019;-63
2022/07/13 10:25:45;;;;;;;4.93;2.80;;;;;;;26.75;47.75;101859.41;5130356;27;20023;-62
2022/07/13 10:28:14;;;;;;;7.90;2.53;;;;;;;26.64;46.23;101863.34;5115310;27;20039;-62
2022/07/13 10:30:39;;;;;;;3.28;2.97;;;;;;;26.61;46.96;101872.75;5134470;27;20027;-63
2022/07/13 10:33:32;;;;;;;7.55;3.00;;;;;;;26.69;48.12;101866.41;5114344;27;20027;-62
2022/07/13 10:35:58;;;;;;;5.57;2.60;;;;;;;26.69;48.01;101875.44;5114245;27;20114;-64
2022/07/13 10:38:28;;;;;;;4.47;2.38;;;;;;;26.73;47.64;101874.06;5133549;27;20023;-63
2022/07/13 10:41:23;;;;;;;3.05;2.33;;;;;;;26.85;47.57;101874.50;5115737;27;20474;-62
2022/07/13 10:44:05;;;;;;;3.25;2.58;;;;;;;26.79;46.39;101867.03;5124692;27;20031;-63
2022/07/13 10:46:50;;;;;;;3.22;2.70;;;;;;;26.95;46.98;101875.16;5114307;27;20019;-62
2022/07/13 10:49:31;;;;;;;5.32;2.47;;;;;;;27.10;46.69;101874.38;5114701;27;20024;-62
2022/07/13 10:52:16;;;;;;;5.18;3.05;;;;;;;27.35;45.37;101880.53;5132675;27;20058;-63
2022/07/13 10:55:05;;;;;;;5.15;2.50;;;;;;;27.63;46.49;101881.69;5132659;27;20027;-63
2022/07/13 10:57:32;;;;;;;8.48;3.03;;;;;;;27.71;44.92;101878.03;5130483;27;20027;-63
2022/07/13 11:00:01;;;;;;;6.85;2.88;;;;;;;27.79;45.41;101880.69;5131751;27;20025;-63
2022/07/13 11:02:54;;;;;;;5.60;2.75;;;;;;;27.89;45.95;101882.34;5130192;27;20164;-63
2022/07/13 11:05:26;;;;;;;2.92;2.60;;;;;;;27.73;45.13;101886.03;5111406;27;20015;-63
2022/07/13 11:07:53;;;;;;;4.28;3.03;;;;;;;27.58;43.14;101888.72;5126926;27;20023;-62
2022/07/13 11:10:18;;;;;;;6.15;2.80;;;;;;;27.43;43.88;101888.69;5111843;27;20038;-62
2022/07/13 11:13:03;;;;;;;6.78;2.50;;;;;;;27.46;45.10;101891.03;5113112;27;20027;-62
2022/07/13 11:15:48;;;;;;;3.72;2.60;;;;;;;27.53;45.94;101885.69;5132487;27;20096;-63
2022/07/13 11:18:22;;;;;;;6.70;2.53;;;;;;;27.47;45.69;101887.28;5113352;27;20397;-63
2022/07/13 11:20:58;;;;;;;6.78;2.63;;;;;;;27.66;45.47;101885.94;5130091;27;20031;-63
2022/07/13 11:26:44;;;;;;;5.78;2.67;;;;;;;28.14;44.84;101888.41;5130174;27;20033;-63
2022/07/13 11:29:47;;;;;;;4.20;2.42;;;;;;;28.68;43.94;101883.53;5128004;27;20019;-63
2022/07/13 11:32:12;;;;;;;5.43;2.80;;;;;;;28.85;41.95;101872.34;5129912;27;20425;-63
2022/07/13 11:34:38;;;;;;;2.65;2.05;;;;;;;29.23;42.17;101886.69;5074282;27;20122;-63
2022/07/13 11:37:04;;;;;;;4.93;2.70;;;;;;;29.36;40.13;101878.63;5114446;27;20116;-63
2022/07/13 11:39:33;;;;;;;5.95;2.70;;;;;;;29.22;40.47;101882.28;5132331;27;20027;-63